Time;durP1;ratioP1;P1;durP2;ratioP2;P2;SDS_P1;SDS_P2;PMS_P1;PMS_P2;Temp;Humidity;BMP_temperature;BMP_pressure;BME280_temperature;BME280_humidity;BME280_pressure;Samples;Min_cycle;Max_cycle;Signal;HPM_P1;HPM_P2
2024/03/20 00:00:54;;;;;;;14.10;10.00;;;;;;;8.04;100.00;100844.59;105931;1251;63649;-73
2024/03/20 00:03:20;;;;;;;11.00;9.20;;;;;;;7.99;100.00;100844.65;106061;1254;72409;-72
2024/03/20 00:05:47;;;;;;;12.10;9.90;;;;;;;7.91;100.00;100839.96;105982;1251;61644;-71
2024/03/20 00:08:13;;;;;;;12.50;10.00;;;;;;;7.85;100.00;100836.77;106008;1251;60508;-71
2024/03/20 00:10:43;;;;;;;10.60;9.50;;;;;;;7.82;100.00;100836.92;106017;1250;73693;-73
2024/03/20 00:13:10;;;;;;;10.80;9.20;;;;;;;7.78;100.00;100836.24;106074;1251;62445;-72
2024/03/20 00:15:36;;;;;;;14.10;10.30;;;;;;;7.74;100.00;100833.65;105960;1253;60507;-75
2024/03/20 00:18:03;;;;;;;13.70;9.50;;;;;;;7.71;100.00;100837.59;106019;1254;60281;-72
2024/03/20 00:20:31;;;;;;;10.90;9.70;;;;;;;7.73;100.00;100836.64;105988;1251;60623;-72
2024/03/20 00:22:57;;;;;;;12.10;9.90;;;;;;;7.76;100.00;100836.84;105993;1251;73880;-72
2024/03/20 00:25:25;;;;;;;11.20;9.20;;;;;;;7.77;100.00;100830.70;106000;1254;63638;-71
2024/03/20 00:27:52;;;;;;;13.20;10.70;;;;;;;7.76;100.00;100831.42;106036;1251;72656;-74
2024/03/20 00:30:19;;;;;;;15.50;10.40;;;;;;;7.74;100.00;100828.04;106077;1254;61912;-73
2024/03/20 00:32:46;;;;;;;11.70;10.30;;;;;;;7.76;100.00;100825.50;106086;1253;60524;-72
2024/03/20 00:35:13;;;;;;;12.10;10.40;;;;;;;7.80;100.00;100822.57;106062;1253;73666;-73
2024/03/20 00:37:39;;;;;;;14.40;11.10;;;;;;;7.82;100.00;100821.92;106098;1250;63754;-75
2024/03/20 00:40:08;;;;;;;14.10;11.00;;;;;;;7.86;100.00;100822.09;105983;1254;71736;-74
2024/03/20 00:42:35;;;;;;;14.20;11.70;;;;;;;7.90;100.00;100825.59;106020;1251;61127;-74
2024/03/20 00:45:03;;;;;;;15.40;11.20;;;;;;;7.92;100.00;100826.19;105911;1250;60543;-73
2024/03/20 00:47:33;;;;;;;13.90;10.80;;;;;;;7.96;100.00;100818.00;105963;1250;73627;-74
2024/03/20 00:50:00;;;;;;;17.70;10.80;;;;;;;8.02;100.00;100816.86;105969;1251;63824;-74
2024/03/20 00:52:27;;;;;;;15.50;10.30;;;;;;;8.04;100.00;100810.30;105984;1254;73095;-75
2024/03/20 00:55:09;;;;;;;13.50;11.20;;;;;;;8.05;100.00;100812.52;105974;1251;60558;-74
2024/03/20 00:57:36;;;;;;;18.20;12.10;;;;;;;8.05;100.00;100811.48;105979;1250;60447;-75
2024/03/20 01:00:05;;;;;;;15.30;11.40;;;;;;;8.06;100.00;100810.73;106095;1254;73839;-72
2024/03/20 01:02:32;;;;;;;14.30;11.00;;;;;;;8.05;100.00;100807.29;106190;1254;63864;-73
2024/03/20 01:04:59;;;;;;;14.80;10.60;;;;;;;8.02;100.00;100807.96;106058;1251;72673;-74
2024/03/20 01:07:26;;;;;;;14.10;12.20;;;;;;;7.97;100.00;100803.85;106408;1250;60529;-72
2024/03/20 01:09:52;;;;;;;13.60;11.00;;;;;;;7.93;100.00;100803.84;106311;1254;60402;-70
2024/03/20 01:12:19;;;;;;;16.50;11.90;;;;;;;7.91;100.00;100806.07;106047;1252;73924;-74
2024/03/20 01:14:46;;;;;;;15.20;12.80;;;;;;;7.82;100.00;100809.08;106040;1256;63717;-73
2024/03/20 01:17:15;;;;;;;16.90;11.70;;;;;;;7.73;100.00;100810.50;106129;1251;72619;-72
2024/03/20 01:19:42;;;;;;;16.10;12.20;;;;;;;7.64;100.00;100811.27;106191;1251;62036;-75
2024/03/20 01:22:10;;;;;;;15.10;11.90;;;;;;;7.54;100.00;100808.41;106117;1249;60431;-73
2024/03/20 01:24:37;;;;;;;21.30;12.90;;;;;;;7.44;100.00;100806.39;106110;1251;72483;-75
2024/03/20 01:27:04;;;;;;;13.30;11.10;;;;;;;7.38;100.00;100804.06;106129;1253;62661;-74
2024/03/20 01:29:31;;;;;;;16.60;11.10;;;;;;;7.36;100.00;100807.28;106157;1254;71652;-74
2024/03/20 01:31:57;;;;;;;14.90;12.20;;;;;;;7.33;100.00;100806.21;106046;1254;60508;-72
2024/03/20 01:34:24;;;;;;;17.30;13.10;;;;;;;7.33;100.00;100808.64;106082;1254;60315;-74
2024/03/20 01:36:52;;;;;;;17.70;12.90;;;;;;;7.35;100.00;100805.06;106012;1251;60513;-73
2024/03/20 01:39:18;;;;;;;14.20;11.60;;;;;;;7.40;100.00;100805.86;106042;1254;63652;-74
2024/03/20 01:41:45;;;;;;;15.80;12.30;;;;;;;7.46;100.00;100806.13;106015;1254;71325;-74
2024/03/20 01:44:12;;;;;;;17.10;13.30;;;;;;;7.50;100.00;100805.46;106064;1254;60437;-74
2024/03/20 01:46:42;;;;;;;17.70;14.70;;;;;;;7.51;100.00;100809.58;106115;1251;60465;-73
2024/03/20 01:49:09;;;;;;;18.60;15.20;;;;;;;7.52;100.00;100812.84;106045;1254;73663;-76
2024/03/20 01:51:37;;;;;;;21.20;16.30;;;;;;;7.56;100.00;100810.92;106011;1253;60434;-72
2024/03/20 01:54:04;;;;;;;20.70;17.50;;;;;;;7.60;100.00;100811.61;105923;1257;71076;-71
2024/03/20 01:56:32;;;;;;;24.20;17.00;;;;;;;7.59;100.00;100810.97;105886;1257;61991;-72
2024/03/20 01:58:59;;;;;;;24.90;16.80;;;;;;;7.56;100.00;100809.72;106089;1251;60421;-73
2024/03/20 02:01:26;;;;;;;29.60;18.60;;;;;;;7.54;100.00;100810.17;105998;1253;73852;-72
2024/03/20 02:03:54;;;;;;;25.50;17.90;;;;;;;7.52;100.00;100807.82;105964;1251;63630;-73
2024/03/20 02:06:28;;;;;;;29.10;18.20;;;;;;;7.49;100.00;100807.77;106006;1253;72794;-74
2024/03/20 02:08:56;;;;;;;27.70;18.40;;;;;;;7.45;100.00;100803.40;105984;1253;60504;-73
2024/03/20 02:11:26;;;;;;;25.90;17.70;;;;;;;7.40;100.00;100804.13;106013;1251;60440;-72
2024/03/20 02:13:54;;;;;;;28.10;18.80;;;;;;;7.34;100.00;100806.33;106069;1253;73891;-73
2024/03/20 02:16:22;;;;;;;34.50;20.20;;;;;;;7.25;100.00;100804.60;106065;1251;63715;-74
2024/03/20 02:18:50;;;;;;;32.70;19.80;;;;;;;7.23;100.00;100804.20;106051;1251;72636;-75
2024/03/20 02:21:21;;;;;;;30.70;17.90;;;;;;;7.19;100.00;100804.52;106002;1254;61665;-73
2024/03/20 02:23:48;;;;;;;26.60;17.60;;;;;;;7.12;100.00;100808.66;105974;1251;60456;-73
2024/03/20 02:26:15;;;;;;;24.10;16.60;;;;;;;7.06;100.00;100807.89;106021;1251;74293;-73
2024/03/20 02:28:43;;;;;;;24.80;17.30;;;;;;;7.02;100.00;100808.39;106100;1251;63901;-73
2024/03/20 02:31:11;;;;;;;35.90;17.90;;;;;;;7.00;100.00;100811.26;106028;1254;72499;-74
2024/03/20 02:33:38;;;;;;;27.60;17.70;;;;;;;6.97;100.00;100811.36;105937;1250;60437;-75
2024/03/20 02:36:05;;;;;;;32.80;18.60;;;;;;;6.95;100.00;100813.36;105991;1251;60446;-73
2024/03/20 02:38:38;;;;;;;24.70;16.50;;;;;;;6.94;100.00;100811.68;106075;1253;72839;-73
2024/03/20 02:41:06;;;;;;;27.40;18.80;;;;;;;6.94;100.00;100814.79;106034;1253;63764;-73
2024/03/20 02:43:33;;;;;;;26.70;17.80;;;;;;;6.94;100.00;100809.27;106069;1251;72518;-74
2024/03/20 02:46:00;;;;;;;26.30;17.60;;;;;;;6.93;100.00;100809.98;105994;1253;61205;-72
2024/03/20 02:48:26;;;;;;;33.30;19.80;;;;;;;6.90;100.00;100807.00;105999;1254;61206;-73
2024/03/20 02:50:53;;;;;;;33.90;19.00;;;;;;;6.87;100.00;100811.80;106031;1250;61333;-74
2024/03/20 02:53:20;;;;;;;30.30;20.40;;;;;;;6.87;100.00;100808.67;106131;1253;64073;-73
2024/03/20 02:55:47;;;;;;;34.60;19.00;;;;;;;6.89;100.00;100812.57;106184;1252;72456;-74
2024/03/20 02:58:13;;;;;;;28.80;18.60;;;;;;;6.90;100.00;100809.58;105969;1254;61134;-72
2024/03/20 03:00:39;;;;;;;28.80;18.10;;;;;;;6.89;100.00;100811.91;106103;1251;61195;-73
2024/03/20 03:03:08;;;;;;;31.00;18.90;;;;;;;6.85;100.00;100813.11;106086;1252;73500;-73
2024/03/20 03:05:36;;;;;;;30.70;19.30;;;;;;;6.86;100.00;100814.94;106089;1253;63253;-72
2024/03/20 03:08:03;;;;;;;32.70;17.90;;;;;;;6.88;100.00;100816.98;106134;1251;72628;-73
2024/03/20 03:10:30;;;;;;;30.70;19.60;;;;;;;6.86;100.00;100818.59;106081;1251;61142;-74
2024/03/20 03:12:57;;;;;;;31.60;17.30;;;;;;;6.81;100.00;100822.27;106133;1253;61115;-73
2024/03/20 03:15:24;;;;;;;28.70;17.60;;;;;;;6.75;100.00;100822.69;106045;1253;61329;-72
2024/03/20 03:17:56;;;;;;;28.60;18.50;;;;;;;6.70;100.00;100826.94;106119;1254;61336;-72
2024/03/20 03:20:26;;;;;;;28.60;17.40;;;;;;;6.66;100.00;100823.27;106167;1251;72416;-74
2024/03/20 03:22:53;;;;;;;26.80;17.40;;;;;;;6.63;100.00;100824.74;106072;1254;61966;-72
2024/03/20 03:25:20;;;;;;;24.30;16.90;;;;;;;6.60;100.00;100825.55;106153;1254;61231;-72
2024/03/20 03:27:48;;;;;;;30.40;18.80;;;;;;;6.56;100.00;100822.09;106111;1253;74501;-75
2024/03/20 03:30:14;;;;;;;24.60;15.40;;;;;;;6.57;100.00;100827.27;106120;1253;63722;-73
2024/03/20 03:32:41;;;;;;;23.30;15.70;;;;;;;6.55;100.00;100828.19;106115;1249;71745;-74
2024/03/20 03:35:09;;;;;;;33.30;19.80;;;;;;;6.52;100.00;100825.90;106103;1253;61132;-73
2024/03/20 03:37:35;;;;;;;28.90;17.80;;;;;;;6.55;100.00;100826.65;106070;1250;61476;-74
2024/03/20 03:40:06;;;;;;;25.90;16.90;;;;;;;6.60;100.00;100834.08;106207;1252;74595;-74
2024/03/20 03:42:33;;;;;;;28.30;18.80;;;;;;;6.57;100.00;100831.58;106156;1253;63812;-74
2024/03/20 03:45:02;;;;;;;29.20;17.80;;;;;;;6.54;100.00;100836.39;106207;1251;72592;-74
2024/03/20 03:47:30;;;;;;;28.60;18.20;;;;;;;6.50;100.00;100837.46;106077;1253;61205;-76
2024/03/20 03:49:57;;;;;;;25.70;18.00;;;;;;;6.46;100.00;100842.27;106099;1251;61263;-73
2024/03/20 03:52:24;;;;;;;27.80;18.90;;;;;;;6.43;100.00;100842.89;106197;1251;74521;-74
2024/03/20 03:54:50;;;;;;;31.20;18.50;;;;;;;6.41;100.00;100845.27;106388;1253;63751;-74
2024/03/20 03:57:17;;;;;;;31.10;19.00;;;;;;;6.38;100.00;100845.52;109277;1252;71138;-73
2024/03/20 03:59:45;;;;;;;33.60;17.10;;;;;;;6.38;100.00;100848.49;108299;1250;61192;-75
2024/03/20 04:02:12;;;;;;;26.60;17.90;;;;;;;6.37;100.00;100853.41;106154;1252;61234;-76
2024/03/20 04:04:39;;;;;;;28.70;18.20;;;;;;;6.38;100.00;100857.18;106034;1249;73273;-74
2024/03/20 04:07:06;;;;;;;27.80;17.60;;;;;;;6.39;100.00;100856.26;106073;1250;63946;-76
2024/03/20 04:09:33;;;;;;;29.80;17.60;;;;;;;6.44;100.00;100854.34;106252;1249;72606;-74
2024/03/20 04:12:00;;;;;;;27.30;17.10;;;;;;;6.49;100.00;100855.56;106177;1253;61218;-75
2024/03/20 04:14:27;;;;;;;30.50;18.30;;;;;;;6.49;100.00;100858.67;106167;1251;61326;-77
2024/03/20 04:16:53;;;;;;;40.00;18.70;;;;;;;6.47;100.00;100857.86;106089;1251;73307;-76
2024/03/20 04:19:20;;;;;;;31.00;19.50;;;;;;;6.42;100.00;100858.40;106154;1251;61332;-77
2024/03/20 04:21:46;;;;;;;31.20;18.60;;;;;;;6.38;100.00;100862.56;106161;1251;61231;-76
2024/03/20 04:24:13;;;;;;;34.60;19.50;;;;;;;6.32;100.00;100864.35;106166;1251;61234;-75
2024/03/20 04:26:39;;;;;;;33.40;17.40;;;;;;;6.28;100.00;100870.06;106122;1253;61230;-75
2024/03/20 04:29:06;;;;;;;31.60;18.40;;;;;;;6.26;100.00;100868.59;106135;1251;61128;-75
2024/03/20 04:31:33;;;;;;;33.50;19.00;;;;;;;6.25;100.00;100874.52;106232;1253;63753;-74
2024/03/20 04:34:00;;;;;;;28.50;18.20;;;;;;;6.24;100.00;100876.61;106135;1251;72768;-75
2024/03/20 04:36:26;;;;;;;29.60;16.10;;;;;;;6.22;100.00;100880.70;106169;1250;61291;-75
2024/03/20 04:38:54;;;;;;;34.90;17.30;;;;;;;6.19;100.00;100881.17;106179;1253;61208;-76
2024/03/20 04:41:22;;;;;;;35.40;17.40;;;;;;;6.15;100.00;100881.49;106212;1252;74788;-75
2024/03/20 04:43:49;;;;;;;29.50;16.30;;;;;;;6.16;100.00;100884.23;106141;1254;63830;-76
2024/03/20 04:46:15;;;;;;;33.00;16.60;;;;;;;6.16;100.00;100888.89;106173;1254;71374;-75
2024/03/20 04:48:43;;;;;;;27.40;14.20;;;;;;;6.20;100.00;100886.86;106210;1253;61672;-73
2024/03/20 04:51:09;;;;;;;40.90;19.50;;;;;;;6.27;100.00;100887.13;106168;1250;61122;-74
2024/03/20 04:53:36;;;;;;;29.20;18.70;;;;;;;6.31;100.00;100895.33;106167;1251;74613;-74
2024/03/20 04:56:03;;;;;;;39.20;20.20;;;;;;;6.33;100.00;100898.52;106105;1254;63839;-76
2024/03/20 04:58:30;;;;;;;38.40;19.50;;;;;;;6.36;100.00;100899.48;106146;1252;72367;-74
2024/03/20 05:00:57;;;;;;;39.20;21.90;;;;;;;6.37;100.00;100899.05;106180;1253;61263;-75
2024/03/20 05:03:23;;;;;;;48.70;20.70;;;;;;;6.38;100.00;100901.28;106192;1251;61096;-75
2024/03/20 05:05:50;;;;;;;37.10;20.80;;;;;;;6.39;100.00;100903.69;106152;1250;61307;-75
2024/03/20 05:08:17;;;;;;;44.20;20.80;;;;;;;6.39;100.00;100902.46;106202;1254;63729;-76
2024/03/20 05:10:44;;;;;;;43.70;21.20;;;;;;;6.39;100.00;100905.23;106176;1251;72669;-74
2024/03/20 05:13:11;;;;;;;37.60;17.80;;;;;;;6.42;100.00;100900.77;106243;1249;61202;-74
2024/03/20 05:15:39;;;;;;;30.40;14.50;;;;;;;6.44;100.00;100903.30;106336;1250;61237;-75
2024/03/20 05:18:05;;;;;;;30.40;14.90;;;;;;;6.47;100.00;100905.45;106284;1254;74507;-73
2024/03/20 05:20:32;;;;;;;30.80;15.90;;;;;;;6.49;100.00;100910.95;106246;1254;63709;-74
2024/03/20 05:22:59;;;;;;;28.10;14.00;;;;;;;6.50;100.00;100912.98;106227;1251;72513;-74
2024/03/20 05:25:26;;;;;;;27.00;13.60;;;;;;;6.52;100.00;100915.35;106136;1249;61232;-75
2024/03/20 05:27:53;;;;;;;35.00;17.40;;;;;;;6.54;100.00;100913.88;106229;1250;61310;-73
2024/03/20 05:30:20;;;;;;;36.10;18.40;;;;;;;6.57;100.00;100915.33;106169;1249;74673;-76
2024/03/20 05:32:47;;;;;;;35.60;15.90;;;;;;;6.58;100.00;100914.39;106028;1254;63525;-75
2024/03/20 05:35:14;;;;;;;34.40;15.40;;;;;;;6.61;100.00;100917.06;106071;1254;71384;-77
2024/03/20 05:37:40;;;;;;;27.40;16.20;;;;;;;6.64;100.00;100917.30;106201;1254;61314;-75
2024/03/20 05:40:09;;;;;;;32.40;15.10;;;;;;;6.68;100.00;100921.67;106215;1254;61263;-75
2024/03/20 05:42:36;;;;;;;27.90;14.50;;;;;;;6.70;100.00;100921.07;106349;1250;74574;-75
2024/03/20 05:45:04;;;;;;;23.10;13.30;;;;;;;6.74;100.00;100923.88;106273;1254;63581;-75
2024/03/20 05:47:32;;;;;;;22.80;13.70;;;;;;;6.78;100.00;100924.76;106255;1251;72657;-73
2024/03/20 05:50:05;;;;;;;23.30;13.00;;;;;;;6.76;100.00;100929.53;106367;1251;61303;-73
2024/03/20 05:52:32;;;;;;;26.30;14.70;;;;;;;6.75;100.00;100935.10;106276;1254;61141;-75
2024/03/20 05:54:59;;;;;;;23.40;14.90;;;;;;;6.73;100.00;100936.10;106202;1249;74610;-73
2024/03/20 05:57:26;;;;;;;25.20;14.00;;;;;;;6.72;100.00;100941.85;106169;1254;63605;-75
2024/03/20 05:59:52;;;;;;;24.60;13.50;;;;;;;6.74;100.00;100940.56;106170;1251;72656;-73
2024/03/20 06:02:20;;;;;;;23.20;13.30;;;;;;;6.74;100.00;100946.98;106168;1254;61135;-75
2024/03/20 06:04:46;;;;;;;29.90;13.70;;;;;;;6.72;100.00;100948.77;106306;1250;61339;-74
2024/03/20 06:07:13;;;;;;;25.70;13.10;;;;;;;6.71;100.00;100949.37;106348;1251;75637;-74
2024/03/20 06:09:41;;;;;;;33.10;13.70;;;;;;;6.70;100.00;100948.70;106407;1254;62622;-74
2024/03/20 06:12:09;;;;;;;31.10;15.40;;;;;;;6.70;100.00;100951.98;106697;1252;72374;-73
2024/03/20 06:14:37;;;;;;;28.00;14.70;;;;;;;6.70;100.00;100955.30;107801;1250;61208;-73
2024/03/20 06:17:04;;;;;;;27.40;15.20;;;;;;;6.73;100.00;100955.00;107772;1250;61252;-73
2024/03/20 06:19:34;;;;;;;25.00;14.00;;;;;;;6.76;100.00;100959.59;107629;1251;74978;-75
2024/03/20 06:22:01;;;;;;;25.10;14.20;;;;;;;6.78;100.00;100961.40;106386;1254;63734;-76
2024/03/20 06:24:29;;;;;;;26.80;14.00;;;;;;;6.82;100.00;100961.10;106205;1250;72589;-75
2024/03/20 06:26:55;;;;;;;31.60;15.00;;;;;;;6.89;100.00;100964.30;106041;1254;61406;-75
2024/03/20 06:29:22;;;;;;;26.80;14.10;;;;;;;6.96;100.00;100963.84;106134;1251;61262;-76
2024/03/20 06:31:50;;;;;;;24.20;14.20;;;;;;;7.05;100.00;100966.61;106193;1250;61310;-75
2024/03/20 06:34:16;;;;;;;32.80;14.20;;;;;;;7.17;100.00;100969.30;106209;1254;63566;-76
2024/03/20 06:36:43;;;;;;;29.30;15.10;;;;;;;7.28;100.00;100973.53;106209;1251;72507;-75
2024/03/20 06:39:10;;;;;;;26.30;13.90;;;;;;;7.34;100.00;100979.20;106236;1253;61732;-77
2024/03/20 06:41:36;;;;;;;24.50;14.40;;;;;;;7.36;100.00;100977.20;106238;1253;61276;-75
2024/03/20 06:44:07;;;;;;;29.10;15.60;;;;;;;7.36;100.00;100976.51;106191;1254;61255;-75
2024/03/20 06:46:34;;;;;;;23.30;13.70;;;;;;;7.34;100.00;100984.95;106230;1254;63545;-73
2024/03/20 06:49:02;;;;;;;22.80;11.90;;;;;;;7.33;100.00;100986.88;107526;1249;72414;-73
2024/03/20 06:51:35;;;;;;;27.80;13.30;;;;;;;7.32;100.00;100988.33;109299;1253;61064;-74
2024/03/20 06:54:11;;;;;;;32.50;12.90;;;;;;;7.34;100.00;100985.48;106663;1250;61274;-76
2024/03/20 06:56:38;;;;;;;27.70;14.90;;;;;;;7.37;100.00;100987.94;106011;1254;72902;-75
2024/03/20 06:59:04;;;;;;;38.30;20.90;;;;;;;7.40;100.00;100986.08;106274;1254;65789;-74
2024/03/20 07:01:31;;;;;;;40.90;19.30;;;;;;;7.45;100.00;100988.66;106155;1251;74697;-74
2024/03/20 07:03:58;;;;;;;32.50;18.70;;;;;;;7.53;100.00;100991.13;106157;1253;61122;-75
2024/03/20 07:06:25;;;;;;;34.80;19.50;;;;;;;7.61;100.00;100993.23;106202;1250;63375;-75
2024/03/20 07:08:52;;;;;;;35.30;18.10;;;;;;;7.71;100.00;100992.80;106198;1250;74639;-75
2024/03/20 07:11:18;;;;;;;38.60;20.20;;;;;;;7.81;100.00;100992.39;106197;1254;63776;-75
2024/03/20 07:13:45;;;;;;;34.50;19.20;;;;;;;7.92;100.00;100992.11;106143;1250;72448;-73
2024/03/20 07:16:12;;;;;;;35.70;17.70;;;;;;;8.00;100.00;100995.05;106128;1250;61218;-74
2024/03/20 07:18:38;;;;;;;35.00;16.30;;;;;;;8.06;100.00;100987.10;106184;1249;61145;-77
2024/03/20 07:21:05;;;;;;;30.60;17.00;;;;;;;8.16;100.00;100983.41;106225;1251;74648;-75
2024/03/20 07:23:31;;;;;;;31.90;17.10;;;;;;;8.20;100.00;100985.30;106219;1254;64928;-75
2024/03/20 07:25:58;;;;;;;43.60;22.50;;;;;;;8.28;100.00;100979.00;106149;1251;72704;-76
2024/03/20 07:28:25;;;;;;;62.50;33.90;;;;;;;8.39;100.00;100980.99;106218;1249;61250;-73
2024/03/20 07:30:51;;;;;;;52.00;25.30;;;;;;;8.43;100.00;100985.17;106194;1250;61237;-77
2024/03/20 07:33:18;;;;;;;47.70;26.90;;;;;;;8.53;100.00;100985.09;107163;1249;74147;-75
2024/03/20 07:35:47;;;;;;;41.70;21.20;;;;;;;8.66;100.00;100988.47;106246;1254;61925;-75
2024/03/20 07:38:14;;;;;;;44.20;24.50;;;;;;;8.75;100.00;100989.81;106272;1252;72056;-76
2024/03/20 07:40:41;;;;;;;41.10;23.10;;;;;;;8.82;100.00;100990.52;106261;1251;61342;-75
2024/03/20 07:43:07;;;;;;;41.90;19.40;;;;;;;8.96;100.00;100988.30;106210;1249;61224;-74
2024/03/20 07:45:34;;;;;;;30.30;15.80;;;;;;;9.20;100.00;100990.66;106204;1251;74658;-74
2024/03/20 07:48:01;;;;;;;30.00;17.50;;;;;;;9.59;100.00;100990.13;106185;1254;62922;-75
2024/03/20 07:50:28;;;;;;;34.40;21.50;;;;;;;10.14;100.00;100993.09;106175;1251;71788;-75
2024/03/20 07:52:55;;;;;;;36.10;18.10;;;;;;;10.75;100.00;100994.61;106237;1253;62272;-75
2024/03/20 07:55:22;;;;;;;37.00;20.10;;;;;;;11.28;100.00;100993.71;106935;1249;61294;-75
2024/03/20 07:57:49;;;;;;;25.10;15.80;;;;;;;11.87;100.00;100987.55;107303;1253;74923;-75
2024/03/20 08:00:28;;;;;;;29.80;18.10;;;;;;;12.47;100.00;100989.52;107026;1254;63926;-77
2024/03/20 08:02:58;;;;;;;23.70;15.00;;;;;;;13.09;100.00;100992.64;106736;1252;70429;-76
2024/03/20 08:05:25;;;;;;;30.00;18.60;;;;;;;13.48;100.00;100990.63;106913;1250;61227;-75
2024/03/20 08:07:53;;;;;;;22.90;14.90;;;;;;;13.81;100.00;100983.70;107142;1250;61141;-72
2024/03/20 08:10:20;;;;;;;26.00;14.20;;;;;;;14.20;100.00;100990.55;106758;1251;73632;-73
2024/03/20 08:12:47;;;;;;;21.70;12.40;;;;;;;14.55;99.05;100988.99;106503;1252;64343;-77
2024/03/20 08:15:14;;;;;;;17.50;11.30;;;;;;;14.80;94.93;100988.46;106039;1252;72629;-73
2024/03/20 08:17:40;;;;;;;14.90;10.90;;;;;;;15.01;92.85;100990.48;106250;1254;61157;-74
2024/03/20 08:20:12;;;;;;;28.50;11.00;;;;;;;15.15;92.57;100988.04;106187;1254;61138;-75
2024/03/20 08:22:42;;;;;;;23.00;11.30;;;;;;;15.39;89.64;100987.64;106216;1254;75665;-75
2024/03/20 08:25:13;;;;;;;18.80;12.70;;;;;;;15.58;83.72;100989.77;106109;1254;64334;-74
2024/03/20 08:27:40;;;;;;;19.40;13.10;;;;;;;15.61;83.03;100983.73;106215;1251;73774;-76
2024/03/20 08:30:13;;;;;;;20.80;11.40;;;;;;;15.62;82.11;100979.98;106147;1254;61192;-77
2024/03/20 08:32:40;;;;;;;25.20;12.80;;;;;;;15.81;80.53;100981.38;106252;1253;61272;-76
2024/03/20 08:35:07;;;;;;;20.30;10.60;;;;;;;16.12;78.76;100978.66;106257;1254;74900;-78
2024/03/20 08:37:34;;;;;;;17.10;10.90;;;;;;;16.47;76.30;100971.96;106053;1254;64803;-76
2024/03/20 08:40:05;;;;;;;21.50;12.10;;;;;;;16.89;72.76;100974.83;106220;1252;71495;-76
2024/03/20 08:42:34;;;;;;;17.90;10.80;;;;;;;17.31;69.84;100972.30;106145;1251;61311;-76
2024/03/20 08:45:04;;;;;;;23.60;11.50;;;;;;;17.64;64.50;100980.70;106185;1253;61249;-75
2024/03/20 08:47:35;;;;;;;20.20;11.10;;;;;;;17.82;64.44;100975.34;106209;1251;74893;-76
2024/03/20 08:50:03;;;;;;;20.90;11.40;;;;;;;18.07;61.49;100976.19;106151;1253;62866;-76
2024/03/20 08:52:30;;;;;;;18.70;11.20;;;;;;;18.30;60.41;100974.23;106176;1251;70613;-76
2024/03/20 08:54:57;;;;;;;18.50;10.60;;;;;;;18.58;55.59;100984.36;106118;1252;61242;-77
2024/03/20 08:57:24;;;;;;;17.30;10.10;;;;;;;18.66;55.22;100969.64;106096;1253;61151;-76
2024/03/20 08:59:51;;;;;;;21.90;13.50;;;;;;;18.73;56.08;100974.39;106198;1253;74630;-76
2024/03/20 09:02:18;;;;;;;24.20;16.00;;;;;;;18.89;55.31;100972.10;106128;1253;63686;-77
2024/03/20 09:04:44;;;;;;;24.80;13.40;;;;;;;18.97;53.29;100971.89;106163;1253;73061;-75
2024/03/20 09:07:11;;;;;;;20.50;14.30;;;;;;;18.90;52.50;100974.79;106137;1253;61330;-76
2024/03/20 09:09:38;;;;;;;27.60;15.10;;;;;;;18.81;53.04;100974.54;106228;1251;61317;-78
2024/03/20 09:12:05;;;;;;;20.50;14.80;;;;;;;18.77;53.36;100981.95;106131;1250;73407;-77
2024/03/20 09:14:35;;;;;;;22.20;13.40;;;;;;;18.75;53.16;100976.80;106188;1253;64986;-75
2024/03/20 09:17:02;;;;;;;22.60;15.30;;;;;;;18.76;53.57;100977.45;106140;1252;71630;-76
2024/03/20 09:19:29;;;;;;;26.40;17.40;;;;;;;18.85;53.84;100982.04;106134;1254;61525;-76
2024/03/20 09:21:56;;;;;;;26.70;18.60;;;;;;;18.97;53.32;100979.50;106158;1252;61434;-75
2024/03/20 09:24:25;;;;;;;22.20;13.80;;;;;;;19.02;52.99;100987.73;106322;1254;75803;-74
2024/03/20 09:26:52;;;;;;;24.60;15.90;;;;;;;19.10;52.88;100986.70;106340;1250;62695;-74
2024/03/20 09:29:18;;;;;;;22.10;12.90;;;;;;;19.17;51.45;100989.88;106307;1253;72849;-74
2024/03/20 09:31:46;;;;;;;18.90;14.50;;;;;;;19.21;50.78;100988.38;106216;1254;61241;-76
2024/03/20 09:34:13;;;;;;;19.80;13.10;;;;;;;19.19;51.84;100988.04;106243;1251;61317;-75
2024/03/20 09:36:40;;;;;;;22.40;14.20;;;;;;;19.18;52.17;100983.48;106189;1249;73825;-78
2024/03/20 09:39:10;;;;;;;17.90;13.30;;;;;;;19.32;51.49;100984.73;106227;1253;63038;-74
2024/03/20 09:41:37;;;;;;;26.50;16.80;;;;;;;19.38;51.11;100985.19;106185;1251;72751;-76
2024/03/20 09:44:05;;;;;;;20.90;14.20;;;;;;;19.33;51.33;100982.86;106079;1256;61316;-74
2024/03/20 09:46:32;;;;;;;23.10;13.70;;;;;;;19.35;51.48;100986.66;106092;1251;61362;-79
2024/03/20 09:48:59;;;;;;;20.80;14.00;;;;;;;19.44;50.50;100990.53;106388;1249;75534;-74
2024/03/20 09:51:26;;;;;;;20.40;12.40;;;;;;;19.49;49.05;100997.72;106016;1254;64014;-77
2024/03/20 09:53:52;;;;;;;20.90;14.50;;;;;;;19.49;48.12;100994.53;106357;1254;71706;-75
2024/03/20 09:56:26;;;;;;;23.90;15.00;;;;;;;19.57;49.25;100997.30;107302;1253;61227;-76
2024/03/20 09:58:56;;;;;;;;;;;;;;;19.67;47.78;100992.80;108275;1253;61154;-75
2024/03/20 10:01:24;;;;;;;21.40;12.90;;;;;;;19.59;47.86;100990.20;107680;1254;76565;-77
2024/03/20 10:03:53;;;;;;;23.80;12.20;;;;;;;19.50;48.98;100997.45;106503;1250;63737;-77
2024/03/20 10:06:27;;;;;;;23.90;13.00;;;;;;;19.43;47.86;100993.61;106154;1251;72860;-75
2024/03/20 10:08:54;;;;;;;29.20;13.60;;;;;;;19.39;48.63;100993.78;106259;1254;61818;-76
2024/03/20 10:11:22;;;;;;;28.90;14.90;;;;;;;19.35;48.82;100990.59;106211;1254;61253;-76
2024/03/20 10:13:49;;;;;;;19.50;13.60;;;;;;;19.29;49.31;100992.21;106100;1254;74916;-78
2024/03/20 10:16:16;;;;;;;21.10;16.20;;;;;;;19.30;49.28;100991.09;105982;1257;64044;-76
2024/03/20 10:18:52;;;;;;;32.50;21.00;;;;;;;19.34;50.29;100984.34;106144;1251;72640;-76
2024/03/20 10:21:19;;;;;;;20.20;15.60;;;;;;;19.49;49.47;100993.55;106157;1253;61225;-77
2024/03/20 10:23:46;;;;;;;25.60;16.00;;;;;;;19.52;48.27;100992.12;106000;1252;61704;-73
2024/03/20 10:26:16;;;;;;;20.70;17.70;;;;;;;19.40;47.93;100988.59;106371;1251;73742;-74
2024/03/20 10:28:43;;;;;;;23.50;16.40;;;;;;;19.09;48.79;100987.84;106236;1254;62714;-77
2024/03/20 10:31:11;;;;;;;26.40;17.00;;;;;;;18.93;50.28;100989.11;106217;1253;72363;-76
2024/03/20 10:33:50;;;;;;;26.20;15.80;;;;;;;18.82;50.16;100988.45;106161;1256;61320;-77
2024/03/20 10:36:18;;;;;;;22.70;16.10;;;;;;;18.74;50.29;100983.69;105973;1254;61150;-78
2024/03/20 10:38:44;;;;;;;23.60;15.80;;;;;;;18.60;51.51;100982.18;106194;1254;74669;-73
2024/03/20 10:41:11;;;;;;;21.20;16.20;;;;;;;18.52;51.67;100985.43;106161;1253;64148;-76
2024/03/20 10:43:38;;;;;;;24.00;16.40;;;;;;;18.29;52.60;100970.42;106031;1252;72818;-78
2024/03/20 10:46:12;;;;;;;24.60;18.10;;;;;;;18.11;54.36;100976.23;106193;1253;61194;-76
2024/03/20 10:48:38;;;;;;;29.20;18.50;;;;;;;18.14;54.37;100972.24;106192;1254;61227;-75
2024/03/20 10:54:06;;;;;;;23.30;17.10;;;;;;;18.28;53.76;100973.36;102443;1293;602908;-74
2024/03/20 10:56:33;;;;;;;23.40;16.70;;;;;;;18.21;53.52;100969.55;105092;1266;59737;-75
2024/03/20 10:59:00;;;;;;;26.70;20.30;;;;;;;18.10;56.99;100965.67;105038;1267;60321;-75
2024/03/20 11:01:27;;;;;;;30.20;19.60;;;;;;;18.31;55.84;100970.73;105004;1267;73427;-75
2024/03/20 11:03:56;;;;;;;27.20;20.10;;;;;;;18.46;52.95;100973.20;104922;1269;64190;-76
2024/03/20 11:06:26;;;;;;;28.30;19.10;;;;;;;18.43;54.05;100971.45;104847;1269;196661;-75